Terminal Aerodrome Forecast
Issued by NWS St Louis, MO

Home | Current Version | Previous Version | Text Only | Print | Product List | Glossary On
Versions: 1 2 3 4 5 6 7 8 9 10 11 12 13 14 15 16 17 18 19 20 21 22 23 24 25 26 27 28 29 30
000
FTUS43 KLSX 160900 AAB
TAFSTL
TAF AMD
KSTL 160921Z 1609/1712 26017G25KT P6SM OVC016
      TEMPO 1609/1613 -RA
     FM161300 29016G26KT P6SM OVC015
     FM162100 30014G24KT P6SM BKN025=

USA.gov is the U.S. government's official web portal to all federal, state and local government web resources and services.